createdAt,value
2018-05-27T00:00:36.831Z,16.25
2018-05-27T00:01:37.053Z,16.33
2018-05-27T00:02:37.260Z,16.34
2018-05-27T00:03:37.448Z,16.30
2018-05-27T00:04:37.658Z,16.30
2018-05-27T00:05:37.856Z,16.30
2018-05-27T00:06:38.068Z,16.25
2018-05-27T00:07:38.282Z,16.25
2018-05-27T00:08:38.498Z,16.15
2018-05-27T00:09:38.709Z,16.23
2018-05-27T00:10:38.996Z,16.15
2018-05-27T00:11:39.057Z,16.08
2018-05-27T00:12:39.258Z,16.08
2018-05-27T00:13:39.453Z,16.08
2018-05-27T00:14:39.657Z,15.96
2018-05-27T00:15:39.842Z,16.02
2018-05-27T00:16:40.058Z,16.04
2018-05-27T00:17:40.258Z,16.05
2018-05-27T00:18:40.468Z,15.93
2018-05-27T00:19:40.661Z,15.93
2018-05-27T00:20:40.866Z,16.02
2018-05-27T00:21:41.071Z,16.00
2018-05-27T00:22:41.271Z,16.02
2018-05-27T00:23:41.483Z,15.94
2018-05-27T00:24:41.654Z,16.07
2018-05-27T00:25:41.864Z,15.90
2018-05-27T00:26:42.060Z,15.96
2018-05-27T00:27:42.255Z,16.01
2018-05-27T00:28:42.460Z,15.96
2018-05-27T00:29:42.648Z,15.92
2018-05-27T00:30:42.864Z,16.01
2018-05-27T00:31:43.051Z,15.96
2018-05-27T00:32:43.263Z,16.04
2018-05-27T00:33:43.474Z,15.94
2018-05-27T00:34:43.680Z,16.02
2018-05-27T00:35:43.881Z,16.02
2018-05-27T00:36:44.084Z,16.07
2018-05-27T00:37:44.272Z,15.96
2018-05-27T00:38:44.472Z,16.02
2018-05-27T00:39:44.684Z,15.94
2018-05-27T00:40:44.899Z,15.89
2018-05-27T00:41:45.084Z,15.87
2018-05-27T00:42:45.280Z,15.72
2018-05-27T00:43:45.480Z,15.64
2018-05-27T00:44:45.701Z,15.47
2018-05-27T00:45:45.891Z,15.44
2018-05-27T00:46:46.097Z,15.25
2018-05-27T00:47:46.309Z,15.17
2018-05-27T00:48:46.499Z,15.17
2018-05-27T00:49:46.705Z,15.17
2018-05-27T00:50:46.997Z,15.16
2018-05-27T00:53:19.019Z,15.34
2018-05-27T00:54:19.189Z,15.32
2018-05-27T00:55:19.411Z,15.39
2018-05-27T00:56:19.597Z,15.29
2018-05-27T00:57:19.807Z,15.35
2018-05-27T00:58:20.020Z,15.38
2018-05-27T00:59:20.224Z,15.41
2018-05-27T01:00:20.409Z,15.51
2018-05-27T01:02:52.682Z,15.54
2018-05-27T01:03:52.860Z,15.46
2018-05-27T01:04:53.066Z,15.50
2018-05-27T01:05:53.283Z,15.59
2018-05-27T01:06:53.574Z,15.64
2018-05-27T01:07:53.639Z,15.65
2018-05-27T01:08:53.820Z,15.68
2018-05-27T01:09:54.009Z,15.68
2018-05-27T01:10:54.213Z,15.60
2018-05-27T01:11:54.400Z,15.72
2018-05-27T01:12:54.616Z,15.57
2018-05-27T01:13:54.893Z,15.51
2018-05-27T01:14:54.958Z,15.50
2018-05-27T01:15:55.158Z,15.53
2018-05-27T01:16:55.400Z,15.54
2018-05-27T01:17:55.610Z,15.56
2018-05-27T01:18:55.820Z,15.51
2018-05-27T01:19:56.016Z,15.47
2018-05-27T01:20:56.202Z,15.46
2018-05-27T01:21:56.394Z,15.59
2018-05-27T01:22:56.575Z,15.62
2018-05-27T01:23:56.776Z,15.54
2018-05-27T01:24:56.968Z,15.51
2018-05-27T01:25:57.181Z,15.49
2018-05-27T01:26:57.400Z,15.49
2018-05-27T01:27:57.610Z,15.51
2018-05-27T01:28:57.810Z,15.56
2018-05-27T01:29:58.018Z,15.46
2018-05-27T01:30:58.215Z,15.36
2018-05-27T01:31:58.427Z,15.46
2018-05-27T01:32:58.627Z,15.38
2018-05-27T01:33:58.841Z,15.32
2018-05-27T01:34:59.055Z,15.38
2018-05-27T01:37:31.196Z,15.41
2018-05-27T01:38:31.373Z,15.34
2018-05-27T01:39:31.580Z,15.34
2018-05-27T01:40:31.793Z,15.28
2018-05-27T01:41:31.974Z,15.35
2018-05-27T01:42:32.171Z,15.35
2018-05-27T01:45:04.317Z,15.20
2018-05-27T01:46:04.495Z,15.07
2018-05-27T01:47:04.703Z,15.13
2018-05-27T01:48:04.895Z,15.11
2018-05-27T01:49:05.102Z,14.99
2018-05-27T01:50:05.298Z,14.88
2018-05-27T01:51:05.522Z,14.70
2018-05-27T01:52:05.720Z,14.54
2018-05-27T01:53:05.933Z,14.58
2018-05-27T01:54:06.144Z,14.57
2018-05-27T01:55:06.313Z,14.42
2018-05-27T01:56:06.502Z,14.45
2018-05-27T01:57:06.716Z,14.36
2018-05-27T01:58:06.922Z,14.32
2018-05-27T01:59:07.121Z,14.33
2018-05-27T02:00:07.327Z,14.29
2018-05-27T02:01:07.513Z,14.45
2018-05-27T02:02:07.726Z,14.45
2018-05-27T02:03:07.910Z,14.45
2018-05-27T02:04:08.124Z,14.55
2018-05-27T02:05:08.321Z,14.55
2018-05-27T02:06:08.536Z,14.62
2018-05-27T02:07:08.723Z,14.45
2018-05-27T02:08:08.945Z,14.70
2018-05-27T02:09:09.151Z,14.61
2018-05-27T02:10:09.360Z,14.65
2018-05-27T02:11:09.571Z,14.61
2018-05-27T02:12:09.777Z,14.58
2018-05-27T02:13:09.964Z,14.58
2018-05-27T02:14:10.160Z,14.58
2018-05-27T02:15:10.356Z,14.57
2018-05-27T02:16:10.562Z,14.61
2018-05-27T02:17:10.875Z,14.62
2018-05-27T02:18:10.946Z,14.50
2018-05-27T02:19:11.143Z,14.55
2018-05-27T02:20:11.331Z,14.43
2018-05-27T02:21:11.533Z,14.36
2018-05-27T02:22:11.739Z,14.40
2018-05-27T02:23:11.931Z,14.33
2018-05-27T02:24:12.133Z,14.22
2018-05-27T02:25:12.348Z,14.28
2018-05-27T02:26:12.539Z,14.25
2018-05-27T02:27:12.745Z,14.15
2018-05-27T02:28:12.926Z,14.17
2018-05-27T02:29:13.134Z,14.02
2018-05-27T02:30:13.322Z,14.00
2018-05-27T02:31:13.581Z,13.97
2018-05-27T02:32:13.786Z,13.88
2018-05-27T02:33:13.982Z,13.89
2018-05-27T02:34:14.173Z,13.89
2018-05-27T02:35:14.386Z,13.92
2018-05-27T02:36:14.580Z,13.85
2018-05-27T02:37:14.767Z,13.85
2018-05-27T02:38:14.952Z,13.85
2018-05-27T02:39:15.151Z,13.84
2018-05-27T02:40:15.404Z,13.84
2018-05-27T02:41:15.552Z,13.91
2018-05-27T02:42:15.746Z,13.87
2018-05-27T02:43:15.954Z,13.88
2018-05-27T02:44:16.167Z,13.92
2018-05-27T02:46:48.307Z,14.07
2018-05-27T02:47:48.481Z,14.17
2018-05-27T02:48:48.682Z,14.22
2018-05-27T02:49:48.873Z,14.18
2018-05-27T02:50:49.073Z,14.27
2018-05-27T02:51:49.291Z,14.27
2018-05-27T02:52:49.475Z,14.33
2018-05-27T02:53:49.682Z,14.35
2018-05-27T02:54:49.864Z,14.42
2018-05-27T02:55:50.062Z,14.39
2018-05-27T02:56:50.262Z,14.39
2018-05-27T02:57:50.452Z,14.43
2018-05-27T02:58:50.657Z,14.33
2018-05-27T02:59:50.848Z,14.33
2018-05-27T03:00:51.053Z,14.35
2018-05-27T03:03:23.187Z,14.32
2018-05-27T03:04:23.360Z,14.14
2018-05-27T03:05:23.625Z,14.17
2018-05-27T03:06:23.705Z,14.20
2018-05-27T03:07:23.904Z,14.22
2018-05-27T03:08:24.127Z,14.27
2018-05-27T03:09:24.310Z,14.36
2018-05-27T03:10:24.519Z,14.28
2018-05-27T03:11:24.703Z,14.35
2018-05-27T03:12:25.006Z,14.36
2018-05-27T03:13:25.150Z,14.21
2018-05-27T03:14:25.344Z,14.24
2018-05-27T03:15:25.533Z,14.14
2018-05-27T03:16:25.732Z,14.04
2018-05-27T03:17:25.922Z,14.06
2018-05-27T03:18:26.133Z,14.02
2018-05-27T03:19:26.323Z,13.87
2018-05-27T03:20:26.509Z,13.92
2018-05-27T03:21:26.707Z,13.92
2018-05-27T03:22:26.885Z,14.00
2018-05-27T03:23:27.082Z,14.04
2018-05-27T03:24:27.295Z,14.10
2018-05-27T03:25:27.494Z,14.25
2018-05-27T03:26:27.704Z,14.20
2018-05-27T03:27:27.887Z,14.21
2018-05-27T03:28:28.085Z,14.32
2018-05-27T03:31:00.223Z,14.52
2018-05-27T03:32:00.408Z,14.35
2018-05-27T03:33:00.584Z,14.47
2018-05-27T03:34:00.792Z,14.51
2018-05-27T03:35:00.988Z,14.52
2018-05-27T03:36:01.250Z,14.50
2018-05-27T03:37:01.337Z,14.58
2018-05-27T03:38:01.531Z,14.57
2018-05-27T03:39:01.732Z,14.57
2018-05-27T03:40:01.944Z,14.52
2018-05-27T03:41:02.139Z,14.60
2018-05-27T03:42:02.355Z,14.62
2018-05-27T03:43:02.544Z,14.70
2018-05-27T03:44:02.741Z,14.73
2018-05-27T03:45:02.938Z,14.75
2018-05-27T03:46:03.109Z,14.80
2018-05-27T03:47:03.303Z,14.81
2018-05-27T03:48:03.511Z,14.83
2018-05-27T03:49:03.711Z,14.78
2018-05-27T03:50:03.911Z,14.62
2018-05-27T03:51:04.107Z,14.62
2018-05-27T03:52:04.296Z,14.52
2018-05-27T03:53:04.484Z,14.64
2018-05-27T03:54:04.672Z,14.51
2018-05-27T03:55:04.861Z,14.50
2018-05-27T03:56:05.080Z,14.46
2018-05-27T03:57:05.278Z,14.46
2018-05-27T03:58:05.488Z,14.42
2018-05-27T04:00:37.872Z,14.24
2018-05-27T04:01:37.799Z,14.20
2018-05-27T04:02:37.984Z,14.20
2018-05-27T04:03:38.187Z,14.29
2018-05-27T04:04:38.385Z,14.15
2018-05-27T04:05:38.600Z,14.17
2018-05-27T04:06:38.790Z,14.15
2018-05-27T04:07:38.976Z,14.12
2018-05-27T04:08:39.183Z,14.09
2018-05-27T04:09:39.392Z,14.03
2018-05-27T04:10:39.596Z,14.12
2018-05-27T04:11:39.786Z,14.20
2018-05-27T04:12:39.968Z,14.24
2018-05-27T04:13:40.154Z,14.45
2018-05-27T04:16:11.978Z,14.65
2018-05-27T04:17:12.165Z,14.96
2018-05-27T04:18:12.343Z,15.56
2018-05-27T04:19:12.533Z,16.04
2018-05-27T04:20:12.743Z,16.45
2018-05-27T04:21:12.938Z,16.34
2018-05-27T04:22:13.125Z,16.50
2018-05-27T04:23:13.326Z,16.66
2018-05-27T04:24:13.527Z,16.76
2018-05-27T04:25:13.717Z,16.78
2018-05-27T04:26:13.904Z,16.88
2018-05-27T04:27:14.097Z,17.11
2018-05-27T04:28:14.297Z,17.30
2018-05-27T04:29:14.489Z,17.36
2018-05-27T04:30:14.696Z,17.44
2018-05-27T04:31:14.911Z,17.31
2018-05-27T04:32:15.122Z,17.38
2018-05-27T04:33:15.326Z,17.00
2018-05-27T04:34:15.519Z,17.03
2018-05-27T04:35:15.726Z,16.97
2018-05-27T04:36:15.907Z,17.00
2018-05-27T04:37:16.113Z,17.03
2018-05-27T04:38:16.307Z,17.15
2018-05-27T04:39:16.512Z,17.07
2018-05-27T04:40:16.724Z,17.11
2018-05-27T04:41:16.929Z,17.23
2018-05-27T04:42:17.143Z,17.30
2018-05-27T04:43:17.352Z,17.30
2018-05-27T04:45:49.486Z,17.46
2018-05-27T04:46:49.669Z,17.56
2018-05-27T04:47:49.853Z,17.52
2018-05-27T04:48:50.053Z,17.48
2018-05-27T04:49:50.267Z,17.40
2018-05-27T04:50:50.474Z,17.63
2018-05-27T04:51:50.664Z,17.84
2018-05-27T04:52:50.871Z,17.90
2018-05-27T04:53:51.099Z,18.11
2018-05-27T04:54:51.305Z,18.20
2018-05-27T04:55:51.521Z,18.08
2018-05-27T04:56:51.732Z,18.41
2018-05-27T04:57:51.926Z,18.63
2018-05-27T04:58:52.116Z,19.02
2018-05-27T04:59:52.307Z,19.22
2018-05-27T05:00:52.518Z,19.10
2018-05-27T05:01:52.708Z,18.81
2018-05-27T05:02:52.912Z,19.22
2018-05-27T05:03:53.112Z,19.59
2018-05-27T05:04:53.340Z,19.94
2018-05-27T05:05:53.551Z,20.36
2018-05-27T05:06:53.745Z,20.52
2018-05-27T05:07:53.962Z,21.06
2018-05-27T05:08:54.174Z,21.21
2018-05-27T05:09:54.383Z,21.42
2018-05-27T05:10:54.585Z,21.96
2018-05-27T05:11:54.796Z,22.21
2018-05-27T05:12:55.070Z,22.10
2018-05-27T05:13:55.166Z,22.54
2018-05-27T05:14:55.406Z,22.79
2018-05-27T05:15:55.573Z,22.94
2018-05-27T05:16:55.789Z,22.92
2018-05-27T05:17:55.983Z,22.86
2018-05-27T05:18:56.197Z,23.07
2018-05-27T05:19:56.389Z,23.15
2018-05-27T05:20:56.586Z,23.50
2018-05-27T05:21:56.802Z,23.57
2018-05-27T05:22:56.989Z,23.61
2018-05-27T05:23:57.188Z,23.61
2018-05-27T05:26:29.057Z,23.42
2018-05-27T05:27:29.247Z,23.72
2018-05-27T05:28:29.486Z,23.80
2018-05-27T05:29:29.690Z,23.69
2018-05-27T05:30:29.890Z,23.83
2018-05-27T05:31:30.082Z,23.98
2018-05-27T05:32:30.294Z,23.58
2018-05-27T05:33:30.504Z,22.90
2018-05-27T05:34:30.710Z,22.24
2018-05-27T05:35:30.927Z,21.80
2018-05-27T05:36:31.120Z,21.16
2018-05-27T05:37:31.330Z,20.82
2018-05-27T05:38:31.537Z,20.38
2018-05-27T05:39:31.746Z,20.21
2018-05-27T05:40:31.953Z,20.08
2018-05-27T05:41:32.167Z,19.92
2018-05-27T05:42:32.363Z,19.88
2018-05-27T05:43:32.559Z,19.74
2018-05-27T05:44:32.759Z,19.43
2018-05-27T05:45:32.976Z,19.25
2018-05-27T05:46:33.189Z,18.98
2018-05-27T05:47:33.396Z,18.54
2018-05-27T05:48:33.614Z,18.35
2018-05-27T05:49:33.802Z,17.92
2018-05-27T05:50:34.006Z,17.90
2018-05-27T05:51:34.211Z,17.78
2018-05-27T05:52:34.413Z,17.71
2018-05-27T05:53:34.615Z,17.75
2018-05-27T05:54:34.821Z,17.62
2018-05-27T05:55:35.011Z,17.59
2018-05-27T05:56:35.212Z,17.79
2018-05-27T05:57:35.429Z,17.74
2018-05-27T05:58:35.647Z,17.82
2018-05-27T05:59:35.857Z,17.86
2018-05-27T06:00:36.049Z,18.07
2018-05-27T06:01:36.265Z,17.90
2018-05-27T06:02:36.472Z,18.05
2018-05-27T06:03:36.673Z,18.10
2018-05-27T06:06:08.832Z,19.87
2018-05-27T06:07:09.016Z,20.58
2018-05-27T06:08:09.223Z,20.69
2018-05-27T06:09:09.445Z,21.42
2018-05-27T06:10:09.660Z,21.10
2018-05-27T06:11:09.855Z,20.70
2018-05-27T06:12:10.058Z,20.33
2018-05-27T06:13:10.256Z,20.58
2018-05-27T06:14:10.455Z,21.56
2018-05-27T06:15:10.657Z,22.15
2018-05-27T06:16:10.859Z,22.52
2018-05-27T06:17:11.063Z,23.23
2018-05-27T06:18:11.274Z,23.47
2018-05-27T06:19:11.499Z,23.75
2018-05-27T06:20:11.694Z,24.09
2018-05-27T06:21:11.889Z,24.57
2018-05-27T06:22:12.111Z,25.61
2018-05-27T06:23:12.330Z,25.99
2018-05-27T06:24:12.546Z,26.39
2018-05-27T06:25:12.760Z,25.82
2018-05-27T06:26:12.964Z,26.23
2018-05-27T06:27:13.173Z,26.54
2018-05-27T06:28:13.371Z,26.67
2018-05-27T06:29:13.584Z,27.34
2018-05-27T06:30:13.800Z,27.04
2018-05-27T06:31:14.011Z,27.02
2018-05-27T06:32:14.216Z,27.19
2018-05-27T06:33:14.414Z,26.88
2018-05-27T06:34:14.638Z,26.40
2018-05-27T06:35:14.861Z,26.02
2018-05-27T06:36:15.077Z,25.64
2018-05-27T06:37:15.269Z,24.84
2018-05-27T06:38:15.583Z,24.87
2018-05-27T06:39:15.666Z,24.52
2018-05-27T06:40:15.886Z,25.47
2018-05-27T06:41:16.085Z,25.91
2018-05-27T06:42:16.279Z,26.09
2018-05-27T06:43:16.498Z,26.06
2018-05-27T06:44:16.718Z,25.87
2018-05-27T06:45:16.915Z,26.63
2018-05-27T06:46:17.131Z,26.43
2018-05-27T06:47:17.329Z,25.61
2018-05-27T06:48:17.559Z,26.05
2018-05-27T06:49:17.761Z,26.72
2018-05-27T06:50:17.970Z,25.17
2018-05-27T06:51:18.215Z,25.32
2018-05-27T06:52:18.393Z,25.57
2018-05-27T06:53:18.615Z,25.98
2018-05-27T06:54:18.850Z,25.57
2018-05-27T06:55:19.051Z,26.67
2018-05-27T06:56:19.253Z,25.99
2018-05-27T06:57:19.461Z,26.80
2018-05-27T06:59:51.676Z,26.39
2018-05-27T07:00:51.864Z,26.60
2018-05-27T07:01:52.063Z,26.43
2018-05-27T07:02:52.293Z,25.80
2018-05-27T07:03:52.504Z,24.98
2018-05-27T07:04:52.834Z,25.21
2018-05-27T07:05:52.926Z,24.95
2018-05-27T07:06:53.119Z,24.91
2018-05-27T07:07:53.350Z,24.58
2018-05-27T07:08:53.552Z,24.68
2018-05-27T07:09:53.773Z,24.76
2018-05-27T07:10:53.991Z,25.39
2018-05-27T07:11:54.187Z,25.65
2018-05-27T07:12:54.391Z,24.95
2018-05-27T07:13:54.609Z,25.18
2018-05-27T07:14:54.905Z,24.85
2018-05-27T07:15:54.973Z,25.32
2018-05-27T07:16:55.203Z,26.01
2018-05-27T07:17:55.428Z,25.46
2018-05-27T07:18:55.634Z,25.90
2018-05-27T07:19:55.849Z,25.77
2018-05-27T07:20:56.048Z,25.58
2018-05-27T07:21:56.244Z,26.18
2018-05-27T07:22:56.444Z,26.37
2018-05-27T07:23:56.645Z,26.80
2018-05-27T07:24:56.864Z,27.75
2018-05-27T07:25:57.193Z,27.99
2018-05-27T07:26:57.312Z,28.21
2018-05-27T07:27:57.508Z,28.86
2018-05-27T07:28:57.721Z,28.14
2018-05-27T07:29:57.915Z,28.58
2018-05-27T07:30:58.137Z,28.03
2018-05-27T07:31:58.355Z,28.62
2018-05-27T07:32:58.601Z,29.06
2018-05-27T07:33:58.825Z,28.70
2018-05-27T07:34:59.047Z,28.61
2018-05-27T07:35:59.249Z,27.50
2018-05-27T07:36:59.447Z,28.04
2018-05-27T07:37:59.667Z,28.96
2018-05-27T07:38:59.919Z,28.39
2018-05-27T07:40:00.130Z,26.67
2018-05-27T07:41:00.357Z,26.62
2018-05-27T07:42:00.556Z,27.00
2018-05-27T07:43:00.772Z,27.00
2018-05-27T07:44:00.973Z,26.97
2018-05-27T07:45:01.201Z,26.29
2018-05-27T07:46:01.403Z,26.39
2018-05-27T07:47:01.628Z,26.80
2018-05-27T07:48:01.832Z,26.43
2018-05-27T07:49:02.068Z,26.20
2018-05-27T07:50:02.279Z,26.51
2018-05-27T07:51:02.468Z,26.21
2018-05-27T07:53:34.626Z,26.07
2018-05-27T07:54:34.829Z,26.75
2018-05-27T07:55:35.153Z,26.35
2018-05-27T07:56:35.239Z,25.99
2018-05-27T07:57:35.445Z,25.77
2018-05-27T07:58:35.668Z,25.87
2018-05-27T07:59:35.905Z,25.94
2018-05-27T08:00:36.103Z,25.39
2018-05-27T08:03:11.638Z,25.03
2018-05-27T08:04:08.437Z,25.21
2018-05-27T08:05:08.637Z,24.91
2018-05-27T08:06:08.858Z,25.06
2018-05-27T08:07:09.090Z,25.17
2018-05-27T08:08:09.291Z,24.71
2018-05-27T08:09:09.496Z,24.05
2018-05-27T08:10:09.718Z,24.34
2018-05-27T08:11:09.906Z,24.43
2018-05-27T08:12:10.099Z,23.94
2018-05-27T08:13:10.291Z,24.20
2018-05-27T08:14:10.507Z,23.93
2018-05-27T08:15:10.717Z,23.78
2018-05-27T08:16:10.924Z,24.21
2018-05-27T08:17:11.150Z,24.09
2018-05-27T08:18:11.354Z,24.15
2018-05-27T08:19:11.555Z,24.20
2018-05-27T08:20:11.765Z,24.30
2018-05-27T08:21:11.980Z,24.47
2018-05-27T08:22:12.182Z,24.28
2018-05-27T08:23:12.374Z,24.69
2018-05-27T08:24:12.604Z,24.80
2018-05-27T08:25:12.819Z,24.77
2018-05-27T08:26:13.032Z,24.64
2018-05-27T08:27:13.233Z,24.49
2018-05-27T08:28:13.447Z,24.34
2018-05-27T08:29:13.656Z,24.65
2018-05-27T08:30:13.864Z,24.99
2018-05-27T08:31:14.094Z,25.02
2018-05-27T08:32:14.299Z,24.95
2018-05-27T08:33:14.508Z,25.20
2018-05-27T08:34:14.712Z,25.35
2018-05-27T08:35:14.927Z,25.06
2018-05-27T08:36:15.135Z,25.50
2018-05-27T08:37:15.330Z,25.39
2018-05-27T08:38:15.533Z,25.38
2018-05-27T08:39:15.741Z,25.52
2018-05-27T08:40:15.949Z,25.85
2018-05-27T08:41:16.158Z,25.79
2018-05-27T08:42:16.364Z,25.92
2018-05-27T08:43:16.565Z,25.90
2018-05-27T08:44:16.789Z,25.65
2018-05-27T08:45:16.986Z,26.32
2018-05-27T08:46:17.213Z,27.09
2018-05-27T08:48:49.243Z,27.18
2018-05-27T08:49:49.429Z,27.03
2018-05-27T08:50:49.649Z,27.59
2018-05-27T08:51:49.844Z,27.55
2018-05-27T08:52:50.041Z,26.72
2018-05-27T08:53:50.267Z,26.69
2018-05-27T08:54:50.455Z,26.80
2018-05-27T08:55:50.648Z,26.26
2018-05-27T08:56:50.865Z,27.17
2018-05-27T08:57:51.082Z,27.51
2018-05-27T08:58:51.293Z,27.54
2018-05-27T08:59:51.576Z,28.62
2018-05-27T09:00:51.659Z,29.14
2018-05-27T09:01:51.881Z,28.90
2018-05-27T09:02:52.078Z,28.58
2018-05-27T09:03:52.284Z,28.33
2018-05-27T09:06:24.534Z,27.41
2018-05-27T09:07:24.715Z,28.02
2018-05-27T09:08:24.932Z,28.61
2018-05-27T09:09:25.140Z,30.23
2018-05-27T09:10:25.336Z,31.21
2018-05-27T09:11:25.555Z,31.69
2018-05-27T09:12:25.784Z,30.72
2018-05-27T09:13:26.001Z,30.88
2018-05-27T09:14:26.223Z,30.42
2018-05-27T09:15:26.490Z,30.35
2018-05-27T09:16:26.641Z,30.04
2018-05-27T09:17:26.838Z,30.45
2018-05-27T09:18:27.042Z,31.02
2018-05-27T09:19:27.238Z,30.75
2018-05-27T09:20:27.435Z,29.86
2018-05-27T09:21:27.664Z,29.60
2018-05-27T09:22:27.880Z,29.67
2018-05-27T09:23:28.080Z,29.21
2018-05-27T09:24:28.286Z,30.32
2018-05-27T09:25:28.522Z,30.04
2018-05-27T09:26:28.736Z,30.75
2018-05-27T09:27:28.916Z,30.86
2018-05-27T09:28:29.150Z,30.99
2018-05-27T09:29:29.361Z,30.01
2018-05-27T09:30:29.574Z,30.57
2018-05-27T09:31:29.812Z,30.91
2018-05-27T09:32:30.037Z,30.42
2018-05-27T09:33:30.267Z,30.31
2018-05-27T09:34:30.478Z,29.06
2018-05-27T09:35:30.686Z,28.92
2018-05-27T09:36:30.946Z,28.92
2018-05-27T09:37:31.148Z,29.28
2018-05-27T09:38:31.357Z,29.95
2018-05-27T09:39:31.559Z,29.49
2018-05-27T09:40:31.783Z,29.83
2018-05-27T09:41:32.003Z,28.12
2018-05-27T09:42:32.231Z,28.39
2018-05-27T09:43:32.431Z,27.70
2018-05-27T09:44:32.640Z,27.70
2018-05-27T09:45:32.887Z,27.82
2018-05-27T09:46:33.072Z,28.56
2018-05-27T09:47:33.283Z,29.70
2018-05-27T09:48:33.670Z,30.16
2018-05-27T09:49:33.768Z,28.90
2018-05-27T09:50:33.970Z,28.54
2018-05-27T09:51:34.211Z,28.93
2018-05-27T09:52:34.436Z,29.63
2018-05-27T09:53:35.197Z,30.64
2018-05-27T09:54:34.878Z,30.57
2018-05-27T09:55:35.078Z,29.98
2018-05-27T09:56:35.279Z,29.52
2018-05-27T09:57:35.486Z,29.58
2018-05-27T09:58:35.693Z,30.00
2018-05-27T09:59:35.917Z,30.55
2018-05-27T10:00:36.133Z,30.76
2018-05-27T10:01:36.355Z,30.86
2018-05-27T10:02:36.563Z,30.58
2018-05-27T10:03:36.774Z,31.69
2018-05-27T10:04:37.010Z,30.58
2018-05-27T10:05:37.228Z,29.53
2018-05-27T10:06:37.434Z,29.71
2018-05-27T10:07:37.651Z,28.81
2018-05-27T10:08:37.866Z,28.96
2018-05-27T10:11:09.723Z,29.06
2018-05-27T10:12:09.911Z,28.81
2018-05-27T10:13:10.119Z,29.15
2018-05-27T10:14:10.319Z,29.16
2018-05-27T10:15:10.533Z,29.63
2018-05-27T10:16:10.745Z,30.07
2018-05-27T10:17:10.964Z,29.76
2018-05-27T10:18:11.173Z,29.65
2018-05-27T10:19:11.362Z,30.32
2018-05-27T10:20:11.624Z,30.32
2018-05-27T10:21:11.835Z,30.34
2018-05-27T10:22:12.044Z,31.16
2018-05-27T10:23:12.242Z,31.38
2018-05-27T10:24:12.484Z,31.38
2018-05-27T10:25:12.705Z,31.89
2018-05-27T10:26:12.902Z,31.19
2018-05-27T10:27:13.105Z,31.63
2018-05-27T10:28:13.374Z,31.70
2018-05-27T10:29:13.470Z,32.28
2018-05-27T10:30:13.699Z,32.29
2018-05-27T10:31:13.896Z,31.58
2018-05-27T10:32:14.114Z,31.54
2018-05-27T10:33:14.345Z,30.11
2018-05-27T10:34:14.584Z,30.46
2018-05-27T10:35:14.783Z,30.75
2018-05-27T10:36:15.000Z,30.84
2018-05-27T10:37:15.236Z,30.49
2018-05-27T10:38:15.433Z,30.24
2018-05-27T10:39:15.770Z,30.13
2018-05-27T10:40:15.795Z,30.16
2018-05-27T10:41:16.014Z,28.80
2018-05-27T10:42:16.204Z,28.37
2018-05-27T10:43:16.429Z,28.30
2018-05-27T10:44:16.652Z,27.81
2018-05-27T10:45:16.851Z,28.37
2018-05-27T10:46:17.096Z,28.59
2018-05-27T10:47:17.300Z,28.30
2018-05-27T10:48:17.520Z,28.88
2018-05-27T10:49:17.735Z,28.77
2018-05-27T10:50:17.958Z,28.46
2018-05-27T10:51:18.156Z,27.87
2018-05-27T10:52:18.374Z,28.61
2018-05-27T10:53:18.577Z,29.26
2018-05-27T10:54:18.806Z,29.05
2018-05-27T10:55:19.016Z,28.02
2018-05-27T10:56:19.215Z,28.25
2018-05-27T10:57:19.425Z,27.82
2018-05-27T10:58:19.697Z,27.63
2018-05-27T10:59:19.770Z,27.17
2018-05-27T11:00:19.982Z,27.79
2018-05-27T11:01:20.193Z,28.46
2018-05-27T11:02:20.407Z,28.33
2018-05-27T11:03:20.604Z,28.66
2018-05-27T11:04:20.825Z,29.14
2018-05-27T11:05:21.025Z,29.15
2018-05-27T11:06:21.244Z,28.73
2018-05-27T11:07:21.476Z,28.98
2018-05-27T11:08:21.704Z,29.06
2018-05-27T11:09:21.905Z,29.18
2018-05-27T11:10:22.112Z,29.30
2018-05-27T11:11:22.323Z,29.41
2018-05-27T11:12:22.543Z,29.33
2018-05-27T11:13:22.742Z,29.27
2018-05-27T11:14:22.966Z,29.30
2018-05-27T11:15:23.164Z,29.45
2018-05-27T11:16:23.388Z,29.85
2018-05-27T11:17:23.595Z,29.82
2018-05-27T11:18:23.820Z,29.24
2018-05-27T11:19:24.015Z,29.27
2018-05-27T11:20:24.249Z,29.82
2018-05-27T11:21:24.477Z,30.35
2018-05-27T11:22:24.688Z,30.72
2018-05-27T11:23:24.901Z,30.91
2018-05-27T11:24:25.204Z,30.73
2018-05-27T11:25:25.299Z,29.37
2018-05-27T11:26:25.569Z,29.58
2018-05-27T11:27:25.740Z,29.86
2018-05-27T11:28:25.972Z,30.22
2018-05-27T11:29:26.200Z,30.49
2018-05-27T11:30:26.434Z,30.42
2018-05-27T11:31:26.635Z,30.49
2018-05-27T11:32:26.964Z,30.04
2018-05-27T11:33:27.039Z,29.64
2018-05-27T11:34:27.253Z,29.63
2018-05-27T11:35:27.470Z,29.70
2018-05-27T11:36:27.680Z,29.94
2018-05-27T11:37:27.894Z,30.13
2018-05-27T11:38:28.121Z,30.45
2018-05-27T11:41:00.306Z,31.26
2018-05-27T11:42:00.488Z,31.01
2018-05-27T11:43:00.735Z,30.58
2018-05-27T11:44:00.911Z,30.79
2018-05-27T11:45:01.127Z,31.19
2018-05-27T11:46:01.407Z,31.43
2018-05-27T11:47:01.480Z,31.73
2018-05-27T11:48:01.685Z,31.69
2018-05-27T11:49:01.908Z,31.09
2018-05-27T11:50:02.105Z,31.26
2018-05-27T11:51:02.300Z,31.20
2018-05-27T11:52:02.533Z,30.99
2018-05-27T11:53:02.800Z,31.32
2018-05-27T11:54:02.879Z,31.16
2018-05-27T11:55:03.071Z,30.69
2018-05-27T11:56:03.261Z,30.79
2018-05-27T11:57:03.604Z,29.94
2018-05-27T11:58:03.692Z,30.05
2018-05-27T11:59:03.911Z,30.42
2018-05-27T12:00:04.128Z,29.61
2018-05-27T12:01:04.346Z,29.92
2018-05-27T12:02:04.605Z,29.70
2018-05-27T12:03:04.796Z,29.14
2018-05-27T12:04:05.015Z,28.85
2018-05-27T12:05:05.360Z,28.86
2018-05-27T12:06:05.444Z,28.71
2018-05-27T12:07:05.658Z,28.89
2018-05-27T12:08:05.871Z,29.34
2018-05-27T12:09:06.176Z,29.97
2018-05-27T12:10:06.263Z,30.49
2018-05-27T12:11:06.471Z,30.13
2018-05-27T12:12:06.664Z,30.26
2018-05-27T12:13:06.903Z,30.24
2018-05-27T12:14:07.120Z,30.35
2018-05-27T12:15:07.326Z,30.22
2018-05-27T12:16:07.664Z,30.58
2018-05-27T12:17:07.770Z,30.70
2018-05-27T12:18:08.000Z,30.54
2018-05-27T12:19:08.203Z,30.47
2018-05-27T12:20:08.410Z,30.55
2018-05-27T12:21:08.622Z,30.88
2018-05-27T12:22:08.814Z,31.06
2018-05-27T12:23:09.044Z,30.67
2018-05-27T12:24:09.301Z,30.37
2018-05-27T12:25:09.513Z,30.60
2018-05-27T12:26:09.714Z,30.76
2018-05-27T12:27:09.934Z,30.32
2018-05-27T12:28:10.174Z,30.49
2018-05-27T12:29:10.334Z,30.61
2018-05-27T12:30:10.537Z,30.49
2018-05-27T12:31:10.724Z,30.26
2018-05-27T12:32:10.922Z,30.46
2018-05-27T12:33:11.145Z,30.51
2018-05-27T12:34:11.363Z,30.42
2018-05-27T12:35:11.672Z,30.10
2018-05-27T12:36:11.771Z,30.11
2018-05-27T12:37:11.967Z,28.96
2018-05-27T12:38:12.221Z,28.78
2018-05-27T12:39:12.415Z,29.30
2018-05-27T12:40:12.608Z,29.49
2018-05-27T12:41:12.795Z,29.60
2018-05-27T12:42:13.045Z,29.83
2018-05-27T12:43:13.264Z,29.90
2018-05-27T12:44:13.473Z,29.98
2018-05-27T12:45:13.670Z,30.01
2018-05-27T12:46:13.883Z,30.05
2018-05-27T12:48:46.205Z,30.27
2018-05-27T12:49:46.385Z,30.15
2018-05-27T12:50:46.626Z,30.04
2018-05-27T12:51:46.844Z,30.22
2018-05-27T12:52:47.064Z,30.53
2018-05-27T12:53:47.275Z,30.65
2018-05-27T12:54:47.509Z,30.42
2018-05-27T12:55:47.711Z,30.45
2018-05-27T12:56:47.935Z,30.32
2018-05-27T12:57:48.159Z,30.57
2018-05-27T12:58:48.394Z,29.80
2018-05-27T12:59:48.607Z,29.80
2018-05-27T13:00:48.813Z,30.04
2018-05-27T13:01:49.038Z,30.34
2018-05-27T13:02:49.258Z,30.47
2018-05-27T13:03:49.449Z,30.83
2018-05-27T13:04:49.679Z,30.61
2018-05-27T13:05:49.876Z,30.42
2018-05-27T13:06:50.090Z,30.23
2018-05-27T13:07:50.291Z,30.72
2018-05-27T13:08:50.522Z,30.55
2018-05-27T13:09:50.715Z,30.79
2018-05-27T13:10:50.916Z,30.70
2018-05-27T13:11:51.177Z,30.43
2018-05-27T13:12:51.357Z,30.26
2018-05-27T13:13:51.571Z,30.16
2018-05-27T13:14:51.764Z,29.87
2018-05-27T13:15:52.076Z,29.48
2018-05-27T13:16:52.465Z,29.51
2018-05-27T13:17:52.414Z,29.58
2018-05-27T13:18:52.639Z,29.57
2018-05-27T13:19:52.858Z,29.76
2018-05-27T13:20:53.047Z,29.90
2018-05-27T13:21:53.237Z,29.86
2018-05-27T13:22:53.433Z,29.36
2018-05-27T13:23:53.690Z,29.11
2018-05-27T13:24:53.779Z,29.21
2018-05-27T13:25:54.002Z,29.27